createdAt,value
2022-11-06T00:01:39.713Z,8.40
2022-11-06T00:04:24.688Z,8.73
2022-11-06T00:07:09.619Z,7.55
2022-11-06T00:09:54.541Z,8.40
2022-11-06T00:12:39.521Z,8.07
2022-11-06T00:15:24.309Z,7.25
2022-11-06T00:18:09.282Z,8.40
2022-11-06T00:20:54.096Z,7.78
2022-11-06T00:23:40.196Z,8.13
2022-11-06T00:26:27.376Z,7.50
2022-11-06T00:29:14.396Z,7.68
2022-11-06T00:31:59.219Z,7.30
2022-11-06T00:34:44.174Z,8.02
2022-11-06T00:37:29.406Z,7.35
2022-11-06T00:40:14.157Z,7.25
2022-11-06T00:42:59.083Z,6.75
2022-11-06T00:45:43.997Z,7.18
2022-11-06T00:48:29.198Z,7.70
2022-11-06T00:51:20.787Z,7.45
2022-11-06T00:54:09.315Z,7.53
2022-11-06T00:56:53.989Z,7.32
2022-11-06T00:59:38.945Z,7.13
2022-11-06T01:02:24.020Z,7.38
2022-11-06T01:05:08.865Z,8.38
2022-11-06T01:07:53.922Z,7.18
2022-11-06T01:10:38.970Z,7.38
2022-11-06T01:13:23.869Z,7.20
2022-11-06T01:16:11.058Z,6.93
2022-11-06T01:18:57.385Z,8.02
2022-11-06T01:21:44.839Z,7.43
2022-11-06T01:24:30.138Z,7.28
2022-11-06T01:27:30.567Z,7.85
2022-11-06T01:30:15.442Z,7.18
2022-11-06T01:33:00.488Z,7.30
2022-11-06T01:35:51.229Z,7.43
2022-11-06T01:38:35.908Z,8.05
2022-11-06T01:41:24.770Z,8.23
2022-11-06T01:44:31.359Z,7.38
2022-11-06T01:47:28.180Z,8.02
2022-11-06T01:50:15.334Z,8.00
2022-11-06T01:53:01.858Z,7.57
2022-11-06T01:55:49.429Z,7.53
2022-11-06T01:58:36.465Z,8.02
2022-11-06T02:01:22.450Z,8.52
2022-11-06T02:04:20.414Z,7.68
2022-11-06T02:07:06.073Z,7.43
2022-11-06T02:09:50.794Z,8.30
2022-11-06T02:12:40.306Z,8.10
2022-11-06T02:15:53.110Z,8.48
2022-11-06T02:19:02.580Z,8.73
2022-11-06T02:21:53.581Z,8.13
2022-11-06T02:24:44.561Z,8.27
2022-11-06T02:27:31.121Z,7.85
2022-11-06T02:30:18.395Z,8.40
2022-11-06T02:33:09.611Z,8.20
2022-11-06T02:36:08.431Z,8.35
2022-11-06T02:38:58.162Z,8.20
2022-11-06T02:41:45.638Z,8.25
2022-11-06T02:44:32.360Z,8.77
2022-11-06T02:47:21.087Z,8.50
2022-11-06T02:50:20.484Z,7.60
2022-11-06T02:53:07.973Z,9.00
2022-11-06T02:56:06.489Z,8.30
2022-11-06T02:58:57.517Z,9.32
2022-11-06T03:01:48.095Z,8.43
2022-11-06T03:04:38.943Z,8.88
2022-11-06T03:10:12.914Z,8.18
2022-11-06T03:13:21.281Z,8.30
2022-11-06T03:16:28.376Z,8.90
2022-11-06T03:19:29.981Z,8.85
2022-11-06T03:22:39.821Z,8.55
2022-11-06T03:25:56.702Z,8.82
2022-11-06T03:28:54.881Z,9.60
2022-11-06T03:32:01.015Z,9.15
2022-11-06T03:35:06.137Z,8.07
2022-11-06T03:38:17.994Z,8.77
2022-11-06T03:41:09.846Z,8.75
2022-11-06T03:43:59.106Z,8.85
2022-11-06T03:46:58.655Z,9.40
2022-11-06T03:49:50.425Z,8.93
2022-11-06T03:52:43.416Z,8.50
2022-11-06T03:55:34.371Z,8.70
2022-11-06T03:58:24.082Z,8.95
2022-11-06T04:01:12.373Z,9.35
2022-11-06T04:04:23.368Z,9.32
2022-11-06T04:07:13.438Z,8.77
2022-11-06T04:10:21.256Z,8.85
2022-11-06T04:13:24.553Z,9.10
2022-11-06T04:16:11.063Z,8.77
2022-11-06T04:18:55.845Z,9.50
2022-11-06T04:21:49.158Z,9.20
2022-11-06T04:25:04.461Z,9.55
2022-11-06T04:27:52.508Z,9.20
2022-11-06T04:30:45.988Z,8.85
2022-11-06T04:33:50.080Z,9.20
2022-11-06T04:37:05.168Z,9.18
2022-11-06T04:39:55.016Z,8.85
2022-11-06T04:43:03.005Z,8.52
2022-11-06T04:45:53.000Z,9.63
2022-11-06T04:48:39.655Z,10.00
2022-11-06T04:51:30.677Z,9.48
2022-11-06T04:54:16.112Z,10.10
2022-11-06T04:57:02.375Z,10.05
2022-11-06T04:59:47.136Z,9.55
2022-11-06T05:02:32.171Z,9.48
2022-11-06T05:05:17.091Z,9.23
2022-11-06T05:08:02.257Z,8.60
2022-11-06T05:10:47.345Z,9.90
2022-11-06T05:13:32.547Z,9.32
2022-11-06T05:16:17.268Z,9.63
2022-11-06T05:19:03.185Z,10.40
2022-11-06T05:22:06.352Z,10.57
2022-11-06T05:27:35.699Z,8.65
2022-11-06T05:30:21.285Z,9.80
2022-11-06T05:33:06.215Z,10.02
2022-11-06T05:35:51.783Z,9.73
2022-11-06T05:38:36.762Z,10.00
2022-11-06T05:41:21.873Z,9.88
2022-11-06T05:44:06.710Z,9.27
2022-11-06T05:46:51.781Z,10.15
2022-11-06T05:49:36.850Z,9.32
2022-11-06T05:52:21.714Z,9.05
2022-11-06T05:55:11.564Z,9.15
2022-11-06T05:57:58.952Z,9.27
2022-11-06T06:00:43.951Z,10.57
2022-11-06T06:03:28.881Z,10.90
2022-11-06T06:06:13.745Z,10.88
2022-11-06T06:08:58.584Z,10.30
2022-11-06T06:11:43.668Z,9.63
2022-11-06T06:14:28.718Z,9.90
2022-11-06T06:17:13.689Z,9.40
2022-11-06T06:19:58.872Z,9.55
2022-11-06T06:22:43.650Z,8.95
2022-11-06T06:25:29.755Z,9.20
2022-11-06T06:28:14.917Z,10.27
2022-11-06T06:31:03.812Z,9.68
2022-11-06T06:33:48.674Z,9.85
2022-11-06T06:36:33.810Z,9.75
2022-11-06T06:39:19.440Z,9.70
2022-11-06T06:42:04.172Z,9.20
2022-11-06T06:44:49.276Z,10.18
2022-11-06T06:47:34.098Z,10.43
2022-11-06T06:50:19.000Z,10.32
2022-11-06T06:53:03.990Z,10.48
2022-11-06T06:55:48.980Z,9.65
2022-11-06T06:58:34.006Z,10.25
2022-11-06T07:01:19.068Z,9.60
2022-11-06T07:04:04.671Z,9.95
2022-11-06T07:06:49.836Z,10.68
2022-11-06T07:09:34.685Z,9.98
2022-11-06T07:12:19.729Z,10.07
2022-11-06T07:15:05.091Z,10.07
2022-11-06T07:17:49.947Z,8.82
2022-11-06T07:20:35.061Z,10.15
2022-11-06T07:23:20.127Z,10.30
2022-11-06T07:26:05.706Z,10.23
2022-11-06T07:28:50.617Z,9.88
2022-11-06T07:31:36.298Z,10.02
2022-11-06T07:34:20.961Z,9.45
2022-11-06T07:37:07.833Z,9.70
2022-11-06T07:39:52.655Z,10.18
2022-11-06T07:42:43.118Z,9.13
2022-11-06T07:45:33.052Z,9.38
2022-11-06T07:48:18.098Z,10.57
2022-11-06T07:51:05.994Z,9.23
2022-11-06T07:53:50.924Z,9.77
2022-11-06T07:56:35.802Z,9.10
2022-11-06T07:59:20.792Z,9.60
2022-11-06T08:02:05.933Z,9.40
2022-11-06T08:04:50.622Z,9.25
2022-11-06T08:07:36.104Z,9.77
2022-11-06T08:10:21.212Z,9.38
2022-11-06T08:13:06.840Z,9.98
2022-11-06T08:15:51.617Z,9.52
2022-11-06T08:18:36.620Z,8.60
2022-11-06T08:21:21.564Z,9.00
2022-11-06T08:24:06.610Z,11.85
2022-11-06T08:26:51.426Z,10.93
2022-11-06T08:29:41.137Z,8.38
2022-11-06T08:32:27.856Z,7.85
2022-11-06T08:35:12.386Z,8.68
2022-11-06T08:37:57.458Z,8.57
2022-11-06T08:40:42.381Z,8.63
2022-11-06T08:43:27.508Z,9.45
2022-11-06T08:46:12.557Z,8.23
2022-11-06T08:48:57.454Z,7.88
2022-11-06T08:51:42.389Z,8.10
2022-11-06T08:54:27.201Z,7.28
2022-11-06T08:57:12.172Z,7.75
2022-11-06T08:59:57.086Z,7.65
2022-11-06T09:02:42.161Z,11.13
2022-11-06T09:05:27.680Z,10.45
2022-11-06T09:08:13.146Z,10.57
2022-11-06T09:10:59.058Z,9.40
2022-11-06T09:13:44.041Z,9.07
2022-11-06T09:16:29.182Z,8.20
2022-11-06T09:19:13.965Z,7.78
2022-11-06T09:21:58.980Z,7.60
2022-11-06T09:25:02.450Z,7.38
2022-11-06T09:27:55.890Z,7.53
2022-11-06T09:30:43.401Z,8.75
2022-11-06T09:33:28.382Z,10.77
2022-11-06T09:36:13.149Z,9.50
2022-11-06T09:38:58.203Z,8.70
2022-11-06T09:41:51.218Z,7.35
2022-11-06T09:45:01.096Z,7.60
2022-11-06T09:50:39.985Z,7.82
2022-11-06T09:53:28.154Z,7.20
2022-11-06T09:56:15.573Z,7.68
2022-11-06T09:59:04.932Z,7.75
2022-11-06T10:02:00.883Z,7.50
2022-11-06T10:04:58.005Z,8.38
2022-11-06T10:07:45.205Z,7.85
2022-11-06T10:11:05.383Z,7.70
2022-11-06T10:14:08.030Z,7.50
2022-11-06T10:17:11.223Z,7.28
2022-11-06T10:20:20.942Z,7.70
2022-11-06T10:23:17.641Z,8.02
2022-11-06T10:26:15.463Z,8.20
2022-11-06T10:29:30.530Z,7.53
2022-11-06T10:32:39.967Z,7.95
2022-11-06T10:36:05.222Z,8.27
2022-11-06T10:38:51.641Z,8.85
2022-11-06T10:41:38.510Z,8.45
2022-11-06T10:44:24.717Z,8.45
2022-11-06T10:47:17.734Z,9.07
2022-11-06T10:50:08.020Z,8.73
2022-11-06T10:52:55.811Z,7.82
2022-11-06T10:55:56.979Z,7.75
2022-11-06T10:58:42.054Z,8.73
2022-11-06T11:01:27.080Z,7.93
2022-11-06T11:04:11.744Z,8.65
2022-11-06T11:06:57.357Z,7.75
2022-11-06T11:09:42.303Z,8.23
2022-11-06T11:12:28.810Z,8.20
2022-11-06T11:15:22.107Z,8.68
2022-11-06T11:18:21.495Z,7.50
2022-11-06T11:21:15.840Z,8.65
2022-11-06T11:24:00.586Z,8.23
2022-11-06T11:26:55.780Z,7.90
2022-11-06T11:29:47.488Z,7.97
2022-11-06T11:32:33.349Z,7.55
2022-11-06T11:35:27.366Z,8.70
2022-11-06T11:38:15.024Z,7.88
2022-11-06T11:41:20.253Z,7.50
2022-11-06T11:44:17.342Z,8.13
2022-11-06T11:50:16.246Z,6.90
2022-11-06T11:53:18.457Z,6.95
2022-11-06T11:56:06.600Z,7.72
2022-11-06T11:58:54.541Z,7.72
2022-11-06T12:01:40.911Z,8.80
2022-11-06T12:04:40.108Z,9.27
2022-11-06T12:07:35.333Z,10.38
2022-11-06T12:10:32.231Z,9.63
2022-11-06T12:13:22.233Z,11.88
2022-11-06T12:16:14.640Z,10.23
2022-11-06T12:19:01.910Z,9.93
2022-11-06T12:21:54.181Z,9.15
2022-11-06T12:24:57.999Z,8.63
2022-11-06T12:27:55.370Z,8.40
2022-11-06T12:30:45.090Z,8.43
2022-11-06T12:34:04.553Z,8.80
2022-11-06T12:36:43.622Z,8.57
2022-11-06T12:39:32.330Z,7.88
2022-11-06T12:42:20.425Z,8.43
2022-11-06T12:45:11.675Z,8.27
2022-11-06T12:48:12.797Z,8.32
2022-11-06T12:51:07.193Z,8.63
2022-11-06T12:54:01.377Z,8.35
2022-11-06T12:56:58.299Z,7.95
2022-11-06T13:00:05.757Z,8.10
2022-11-06T13:03:24.789Z,7.95
2022-11-06T13:06:17.985Z,8.13
2022-11-06T13:09:08.535Z,8.13
2022-11-06T13:12:04.454Z,9.93
2022-11-06T13:15:19.843Z,12.48
2022-11-06T13:18:28.824Z,10.50
2022-11-06T13:21:22.619Z,11.43
2022-11-06T13:24:15.168Z,8.60
2022-11-06T13:27:12.965Z,8.82
2022-11-06T13:30:04.416Z,9.93
2022-11-06T13:33:08.037Z,8.90
2022-11-06T13:38:41.519Z,9.07
2022-11-06T13:41:31.043Z,9.63
2022-11-06T13:44:17.782Z,9.45
2022-11-06T13:47:12.217Z,9.93
2022-11-06T13:49:59.955Z,10.07
2022-11-06T13:52:57.452Z,11.05
2022-11-06T13:56:33.613Z,10.23
2022-11-06T13:59:23.833Z,11.68
2022-11-06T14:02:33.736Z,11.05
2022-11-06T14:05:37.705Z,10.32
2022-11-06T14:11:17.323Z,12.95
2022-11-06T14:14:06.713Z,11.93
2022-11-06T14:17:13.613Z,12.20
2022-11-06T14:20:22.883Z,13.25
2022-11-06T14:23:29.477Z,12.20
2022-11-06T14:26:38.425Z,12.93
2022-11-06T14:29:29.041Z,14.00
2022-11-06T14:32:20.940Z,15.20
2022-11-06T14:35:35.152Z,15.00
2022-11-06T14:38:29.331Z,14.40
2022-11-06T14:41:35.883Z,14.20
2022-11-06T14:44:32.530Z,14.15
2022-11-06T14:47:39.763Z,15.00
2022-11-06T14:50:33.433Z,14.98
2022-11-06T14:53:19.896Z,14.73
2022-11-06T14:56:09.305Z,15.57
2022-11-06T14:59:00.573Z,15.15
2022-11-06T15:01:57.806Z,15.07
2022-11-06T15:05:20.944Z,14.32
2022-11-06T15:08:06.478Z,13.30
2022-11-06T15:10:52.969Z,14.52
2022-11-06T15:13:38.165Z,13.85
2022-11-06T15:16:38.298Z,14.63
2022-11-06T15:19:27.603Z,14.07
2022-11-06T15:22:25.821Z,14.18
2022-11-06T15:25:16.576Z,15.88
2022-11-06T15:28:15.206Z,14.65
2022-11-06T15:31:05.174Z,14.48
2022-11-06T15:34:03.540Z,14.73
2022-11-06T15:36:54.140Z,15.65
2022-11-06T15:39:51.828Z,15.88
2022-11-06T15:42:38.323Z,17.15
2022-11-06T15:45:26.512Z,16.98
2022-11-06T15:48:21.860Z,16.67
2022-11-06T15:51:27.745Z,16.45
2022-11-06T15:54:14.327Z,15.82
2022-11-06T15:57:05.969Z,16.10
2022-11-06T16:00:20.322Z,17.67
2022-11-06T16:03:06.104Z,16.92
2022-11-06T16:05:53.830Z,23.80
2022-11-06T16:08:40.305Z,26.42
2022-11-06T16:11:25.535Z,24.42
2022-11-06T16:14:13.964Z,22.95
2022-11-06T16:17:10.193Z,22.35
2022-11-06T16:20:01.096Z,19.63
2022-11-06T16:22:46.617Z,18.77
2022-11-06T16:25:31.504Z,19.52
2022-11-06T16:28:21.473Z,19.63
2022-11-06T16:31:13.157Z,22.65
2022-11-06T16:34:04.460Z,19.65
2022-11-06T16:37:11.448Z,20.42
2022-11-06T16:39:58.815Z,21.70
2022-11-06T16:43:00.909Z,20.63
2022-11-06T16:46:07.158Z,19.70
2022-11-06T16:48:51.900Z,18.75
2022-11-06T16:51:37.579Z,19.90
2022-11-06T16:54:28.146Z,18.15
2022-11-06T16:57:17.631Z,19.70
2022-11-06T17:00:20.601Z,19.42
2022-11-06T17:03:08.260Z,18.73
2022-11-06T17:05:56.377Z,18.23
2022-11-06T17:08:41.173Z,18.38
2022-11-06T17:11:26.325Z,18.23
2022-11-06T17:14:18.358Z,17.25
2022-11-06T17:17:03.917Z,19.90
2022-11-06T17:19:48.585Z,18.65
2022-11-06T17:22:33.577Z,18.33
2022-11-06T17:25:18.617Z,18.88
2022-11-06T17:28:03.714Z,18.60
2022-11-06T17:30:49.441Z,19.17
2022-11-06T17:33:34.134Z,17.65
2022-11-06T17:36:21.742Z,17.83
2022-11-06T17:39:07.154Z,19.75
2022-11-06T17:41:53.181Z,18.15
2022-11-06T17:44:38.371Z,17.05
2022-11-06T17:47:23.313Z,18.10
2022-11-06T17:50:08.723Z,17.90
2022-11-06T17:52:53.813Z,19.52
2022-11-06T17:55:38.625Z,17.50
2022-11-06T17:58:23.709Z,18.95
2022-11-06T18:01:10.462Z,16.80
2022-11-06T18:03:55.091Z,16.65
2022-11-06T18:06:40.391Z,17.48
2022-11-06T18:09:25.418Z,17.35
2022-11-06T18:12:14.154Z,16.58
2022-11-06T18:14:59.224Z,16.85
2022-11-06T18:17:43.909Z,17.05
2022-11-06T18:20:28.881Z,17.08
2022-11-06T18:23:14.079Z,16.75
2022-11-06T18:25:59.082Z,16.40
2022-11-06T18:28:43.935Z,18.42
2022-11-06T18:31:28.607Z,17.58
2022-11-06T18:34:19.795Z,18.65
2022-11-06T18:37:04.997Z,18.05
2022-11-06T18:39:49.984Z,17.23
2022-11-06T18:42:35.234Z,17.67
2022-11-06T18:45:19.867Z,16.20
2022-11-06T18:48:06.353Z,17.83
2022-11-06T18:50:51.217Z,17.42
2022-11-06T18:53:37.672Z,18.00
2022-11-06T18:56:22.572Z,17.88
2022-11-06T18:59:11.853Z,17.25
2022-11-06T19:01:57.027Z,17.40
2022-11-06T19:04:41.828Z,17.92
2022-11-06T19:07:26.690Z,16.38
2022-11-06T19:10:13.584Z,16.70
2022-11-06T19:12:59.637Z,17.42
2022-11-06T19:15:44.858Z,16.55
2022-11-06T19:18:31.000Z,18.15
2022-11-06T19:21:16.072Z,18.52
2022-11-06T19:24:04.704Z,18.08
2022-11-06T19:26:50.993Z,17.55
2022-11-06T19:29:35.920Z,18.92
2022-11-06T19:32:20.827Z,19.05
2022-11-06T19:35:05.964Z,18.90
2022-11-06T19:37:51.527Z,18.98
2022-11-06T19:40:36.139Z,17.48
2022-11-06T19:43:21.359Z,18.38
2022-11-06T19:46:07.600Z,17.67
2022-11-06T19:48:52.667Z,18.85
2022-11-06T19:51:37.959Z,18.90
2022-11-06T19:54:23.138Z,17.90
2022-11-06T19:57:29.664Z,18.58
2022-11-06T20:00:13.528Z,19.45
2022-11-06T20:02:58.186Z,17.73
2022-11-06T20:05:43.338Z,19.10
2022-11-06T20:08:28.210Z,17.70
2022-11-06T20:11:14.032Z,19.45
2022-11-06T20:13:59.900Z,18.92
2022-11-06T20:16:44.846Z,20.85
2022-11-06T20:19:29.756Z,19.25
2022-11-06T20:22:14.622Z,17.45
2022-11-06T20:24:59.688Z,18.55
2022-11-06T20:27:44.793Z,18.27
2022-11-06T20:30:30.219Z,18.10
2022-11-06T20:33:15.855Z,18.95
2022-11-06T20:36:18.658Z,19.50
2022-11-06T20:39:04.447Z,19.23
2022-11-06T20:41:50.217Z,19.10
2022-11-06T20:44:35.206Z,19.92
2022-11-06T20:47:20.200Z,18.23
2022-11-06T20:50:05.509Z,19.35
2022-11-06T20:52:50.131Z,20.45
2022-11-06T20:55:34.930Z,18.70
2022-11-06T20:58:20.115Z,18.02
2022-11-06T21:01:13.012Z,18.48
2022-11-06T21:03:59.231Z,19.20
2022-11-06T21:06:43.922Z,20.42
2022-11-06T21:09:29.076Z,18.50
2022-11-06T21:12:13.941Z,19.13
2022-11-06T21:14:58.952Z,18.70
2022-11-06T21:17:43.932Z,17.98
2022-11-06T21:20:28.996Z,18.25
2022-11-06T21:23:13.888Z,18.75
2022-11-06T21:26:06.720Z,18.73
2022-11-06T21:28:51.832Z,18.55
2022-11-06T21:31:43.974Z,18.48
2022-11-06T21:34:33.299Z,19.38
2022-11-06T21:37:18.379Z,18.27
2022-11-06T21:40:03.667Z,18.15
2022-11-06T21:42:48.562Z,19.27
2022-11-06T21:45:34.054Z,17.85
2022-11-06T21:48:32.920Z,17.55
2022-11-06T21:51:27.271Z,17.30
2022-11-06T21:54:30.761Z,17.20
2022-11-06T21:57:15.830Z,18.25
2022-11-06T22:00:00.928Z,17.58
2022-11-06T22:02:45.903Z,18.48
2022-11-06T22:05:30.954Z,17.45
2022-11-06T22:08:16.025Z,18.02
2022-11-06T22:11:10.553Z,18.30
2022-11-06T22:13:57.505Z,18.27
2022-11-06T22:16:44.823Z,18.27
2022-11-06T22:19:29.506Z,19.92
2022-11-06T22:22:14.502Z,17.77
2022-11-06T22:24:59.533Z,18.35
2022-11-06T22:27:44.463Z,17.67
2022-11-06T22:30:29.525Z,17.20
2022-11-06T22:33:14.689Z,18.45
2022-11-06T22:36:09.497Z,18.30
2022-11-06T22:38:54.225Z,17.25
2022-11-06T22:41:39.937Z,18.00
2022-11-06T22:44:25.060Z,18.48
2022-11-06T22:47:10.036Z,18.02
2022-11-06T22:49:54.751Z,18.25
2022-11-06T22:52:39.676Z,18.80
2022-11-06T22:55:24.893Z,19.02
2022-11-06T22:58:09.698Z,18.60
2022-11-06T23:00:56.070Z,17.55
2022-11-06T23:03:41.151Z,18.23
2022-11-06T23:06:27.656Z,17.80
2022-11-06T23:09:13.397Z,18.67
2022-11-06T23:11:58.231Z,18.58
2022-11-06T23:14:43.210Z,18.05
2022-11-06T23:17:28.198Z,18.33
2022-11-06T23:20:13.219Z,18.42
2022-11-06T23:22:59.882Z,18.10
2022-11-06T23:25:44.587Z,17.73
2022-11-06T23:28:29.541Z,20.27
2022-11-06T23:31:15.549Z,17.88
2022-11-06T23:34:00.578Z,17.13
2022-11-06T23:36:45.389Z,19.30
2022-11-06T23:39:30.926Z,19.70
2022-11-06T23:42:17.901Z,18.58
2022-11-06T23:45:21.766Z,19.63
2022-11-06T23:48:13.439Z,17.65
2022-11-06T23:50:59.407Z,19.05
2022-11-06T23:53:44.450Z,18.52
2022-11-06T23:56:29.458Z,17.75
2022-11-06T23:59:14.521Z,18.48
